Sausalito, CA (94965)

5:46 AM PDT on April 24, 2017 (GMT -0700)
Prospect Ave. Sausalito | | Change Station

Elev 518 ft 37.85 °N, 122.49 °W | Updated 1 second ago

Overcast
Overcast
52.5 °F
Feels Like 52.5 °F
N
0.0
Wind Variable Wind from NNE
Gusts 1.0 mph

Today
High -- | Low -- °F
--% Chance of Precip.
Yesterday
High -- | Low -- °F
Precip. -- in
Pressure 30.05 in
Visibility 10.0 miles
Clouds Few 1800 ft
Mostly Cloudy 6500 ft
Mostly Cloudy 11000 ft
Dew Point 48 °F
Humidity 83%
Rainfall 0.00 in
Snow Depth Not available.
6:22 AM 7:54 PM
Waning Crescent, 6% visible
METAR KSFO 241156Z 27008KT 10SM FEW018 BKN065 BKN110 12/08 A3005 RMK AO2 SLP175 T01220078 10122 20117 53007
Pressure 30.05 in
Visibility 10.0 miles
Clouds Few 1800 ft
Mostly Cloudy 6500 ft
Mostly Cloudy 11000 ft
Dew Point 48 °F
Humidity 83%
Rainfall 0.00 in
Snow Depth Not available.
6:22 AM 7:54 PM
Waning Crescent, 6% visible
METAR KSFO 241156Z 27008KT 10SM FEW018 BKN065 BKN110 12/08 A3005 RMK AO2 SLP175 T01220078 10122 20117 53007

Get Severe Weather Alerts

Thanks for signing up!

Be on the lookout for a verification email in your inbox.

You'll start receiving the daily forecast at 8 AM.

×

10-Day Weather Forecast

Almanac

Astronomy

Apr. 24, 2017 Rise Set
Actual Time
Civil Twilight
Nautical Twilight
Astronomical Twilight
Moon
Length of Visible Light
Length of Day
Tomorrow will be .
, % of the Moon is Illuminated

Today's Extremes

State Highs State Lows

Community

WunderPhotos

WunderBlog® & News

Nearby

Air Quality

  Air Quality AQ Index Pollutant
Not available.

Snow Depth

Station Depth Elevation

Earthquake Activity

City Distance Mag. Time & Date
Minimum magnitude displayed is 2.5.

Coastal Water Temperatures

Place Temperature

Stations

Nearby Weather Stations

Station Location Temp. Windchill Dew Point Humidity Wind Precip. Elev Updated Type
                   

Watches & Warnings

There are currently no watches in effect.